- বাংলা English

****   ****

METAR

 VGHS 260500Z 16014KT 4000 HZ SCT015 BKN100 32/24 Q1001 NO SIG=